createdAt,value
2022-11-29T00:00:37.199Z,100690.53
2022-11-29T00:05:39.585Z,100709.41
2022-11-29T00:11:00.164Z,100661.06
2022-11-29T00:16:04.952Z,100701.06
2022-11-29T00:21:08.909Z,100701.06
2022-11-29T00:26:11.387Z,100720.34
2022-11-29T00:31:26.362Z,100704.44
2022-11-29T00:36:28.895Z,100706.44
2022-11-29T00:41:32.046Z,100727.56
2022-11-29T00:46:34.356Z,100710.81
2022-11-29T00:51:36.851Z,100679.03
2022-11-29T00:56:39.575Z,100713.38
2022-11-29T01:01:41.953Z,100714.19
2022-11-29T01:06:44.260Z,100733.25
2022-11-29T01:11:46.532Z,100722.19
2022-11-29T01:16:48.888Z,100701.28
2022-11-29T01:21:51.229Z,100707.66
2022-11-29T01:26:53.407Z,100709.84
2022-11-29T01:31:55.649Z,100681.03
2022-11-29T01:36:58.154Z,100676.06
2022-11-29T01:42:01.376Z,100705.16
2022-11-29T01:47:03.894Z,100698.13
2022-11-29T01:52:13.712Z,100692.44
2022-11-29T01:57:17.289Z,100675.41
2022-11-29T02:02:27.457Z,100679.44
2022-11-29T02:07:29.921Z,100674.09
2022-11-29T02:12:55.229Z,100698.09
2022-11-29T02:18:09.041Z,100679.66
2022-11-29T02:23:35.449Z,100706.44
2022-11-29T02:28:55.777Z,100712.19
2022-11-29T02:34:32.865Z,100674.88
2022-11-29T02:39:53.809Z,100700.97
2022-11-29T02:45:13.503Z,100704.31
2022-11-29T02:50:24.648Z,100694.00
2022-11-29T02:55:35.029Z,100710.31
2022-11-29T03:00:47.752Z,100711.31
2022-11-29T03:06:15.780Z,100708.75
2022-11-29T03:11:18.235Z,100711.84
2022-11-29T03:16:59.814Z,100704.00
2022-11-29T03:22:12.671Z,100701.16
2022-11-29T03:27:21.753Z,100692.59
2022-11-29T03:32:32.530Z,100678.38
2022-11-29T03:38:16.254Z,100697.94
2022-11-29T03:43:31.385Z,100692.50
2022-11-29T03:48:52.002Z,100694.22
2022-11-29T03:54:13.855Z,100704.63
2022-11-29T03:59:16.199Z,100705.69
2022-11-29T04:04:55.409Z,100701.97
2022-11-29T04:10:12.793Z,100704.00
2022-11-29T04:15:52.359Z,100707.34
2022-11-29T04:21:25.362Z,100704.06
2022-11-29T04:26:46.073Z,100701.75
2022-11-29T04:31:54.495Z,100691.81
2022-11-29T04:37:27.626Z,100686.31
2022-11-29T04:42:29.955Z,100697.69
2022-11-29T04:47:48.416Z,100698.00
2022-11-29T04:52:56.905Z,100703.84
2022-11-29T04:58:07.991Z,100701.31
2022-11-29T05:03:25.016Z,100677.53
2022-11-29T05:08:39.310Z,100718.03
2022-11-29T05:13:56.964Z,100692.75
2022-11-29T05:19:10.982Z,100711.72
2022-11-29T05:24:57.815Z,100715.75
2022-11-29T05:30:12.349Z,100713.44
2022-11-29T05:35:45.275Z,100717.75
2022-11-29T05:41:07.207Z,100725.81
2022-11-29T05:46:27.955Z,100726.63
2022-11-29T05:51:30.243Z,100739.81
2022-11-29T05:56:53.995Z,100746.47
2022-11-29T06:02:15.753Z,100757.53
2022-11-29T06:07:31.207Z,100731.75
2022-11-29T06:12:37.930Z,100748.91
2022-11-29T06:17:49.492Z,100764.19
2022-11-29T06:23:09.475Z,100743.41
2022-11-29T06:28:42.464Z,100749.06
2022-11-29T06:34:30.973Z,100775.47
2022-11-29T06:39:33.692Z,100766.34
2022-11-29T06:44:36.205Z,100724.56
2022-11-29T06:49:54.070Z,100762.06
2022-11-29T06:55:11.208Z,100761.88
2022-11-29T07:00:45.856Z,100759.19
2022-11-29T07:05:48.756Z,100752.53
2022-11-29T07:10:54.507Z,100758.28
2022-11-29T07:16:25.489Z,100742.44
2022-11-29T07:21:27.764Z,100755.47
2022-11-29T07:26:32.982Z,100762.34
2022-11-29T07:31:56.988Z,100735.94
2022-11-29T07:37:04.868Z,100750.16
2022-11-29T07:42:26.580Z,100757.66
2022-11-29T07:47:34.077Z,100736.09
2022-11-29T07:52:37.849Z,100737.75
2022-11-29T07:57:40.476Z,100762.19
2022-11-29T08:02:43.182Z,100735.78
2022-11-29T08:07:46.971Z,100732.94
2022-11-29T08:12:51.893Z,100712.22
2022-11-29T08:17:54.459Z,100724.09
2022-11-29T08:22:58.874Z,100745.69
2022-11-29T08:28:03.060Z,100745.69
2022-11-29T08:33:05.516Z,100726.97
2022-11-29T08:38:07.804Z,100712.44
2022-11-29T08:43:10.103Z,100763.97
2022-11-29T08:48:14.412Z,100726.81
2022-11-29T08:53:35.118Z,100764.13
2022-11-29T08:58:38.639Z,100754.28
2022-11-29T09:03:59.787Z,100755.94
2022-11-29T09:09:02.222Z,100714.97
2022-11-29T09:14:07.286Z,100751.75
2022-11-29T09:19:09.948Z,100710.50
2022-11-29T09:24:12.451Z,100723.50
2022-11-29T09:29:16.697Z,100698.63
2022-11-29T09:34:19.159Z,100717.16
2022-11-29T09:39:21.360Z,100705.47
2022-11-29T09:44:46.729Z,100683.25
2022-11-29T09:50:23.065Z,100720.00
2022-11-29T09:55:50.020Z,100721.50
2022-11-29T10:01:00.544Z,100698.41
2022-11-29T10:06:17.819Z,100712.97
2022-11-29T10:11:35.880Z,100716.47
2022-11-29T10:16:53.069Z,100707.22
2022-11-29T10:22:10.927Z,100681.91
2022-11-29T10:27:27.525Z,100690.13
2022-11-29T10:32:32.569Z,100683.00
2022-11-29T10:37:35.395Z,100635.38
2022-11-29T10:42:53.535Z,100665.75
2022-11-29T10:48:02.484Z,100653.72
2022-11-29T10:53:11.988Z,100649.97
2022-11-29T10:58:18.729Z,100668.69
2022-11-29T11:03:32.057Z,100615.94
2022-11-29T11:08:36.203Z,100655.41
2022-11-29T11:13:41.522Z,100621.13
2022-11-29T11:18:45.193Z,100622.00
2022-11-29T11:24:03.335Z,100607.78
2022-11-29T11:29:06.097Z,100607.00
2022-11-29T11:34:27.140Z,100603.91
2022-11-29T11:39:29.676Z,100588.09
2022-11-29T11:44:51.731Z,100601.63
2022-11-29T11:50:08.630Z,100601.00
2022-11-29T11:55:23.211Z,100604.41
2022-11-29T12:01:03.369Z,100600.22
2022-11-29T12:06:35.579Z,100562.31
2022-11-29T12:11:53.903Z,100563.16
2022-11-29T12:17:08.526Z,100583.00
2022-11-29T12:22:16.788Z,100566.53
2022-11-29T12:27:19.318Z,100557.28
2022-11-29T12:32:36.313Z,100563.63
2022-11-29T12:38:34.577Z,100577.06
2022-11-29T12:43:55.109Z,100583.22
2022-11-29T12:49:27.252Z,100565.38
2022-11-29T12:54:44.351Z,100545.03
2022-11-29T13:00:09.969Z,100575.28
2022-11-29T13:05:25.111Z,100572.31
2022-11-29T13:10:56.571Z,100573.34
2022-11-29T13:16:20.530Z,100571.41
2022-11-29T13:21:39.730Z,100551.00
2022-11-29T13:26:43.653Z,100566.72
2022-11-29T13:31:47.664Z,100583.25
2022-11-29T13:37:22.714Z,100533.94
2022-11-29T13:42:58.509Z,100580.31
2022-11-29T13:48:02.667Z,100575.44
2022-11-29T13:53:14.306Z,100565.63
2022-11-29T13:58:18.091Z,100585.09
2022-11-29T14:03:23.646Z,100586.59
2022-11-29T14:09:01.989Z,100599.94
2022-11-29T14:14:17.734Z,100600.38
2022-11-29T14:19:33.072Z,100614.72
2022-11-29T14:24:36.392Z,100605.91
2022-11-29T14:29:50.625Z,100615.41
2022-11-29T14:35:01.958Z,100617.03
2022-11-29T14:40:33.999Z,100592.84
2022-11-29T14:45:36.496Z,100597.16
2022-11-29T14:50:42.722Z,100587.16
2022-11-29T14:55:45.026Z,100627.50
2022-11-29T15:00:50.174Z,100620.59
2022-11-29T15:06:15.928Z,100619.44
2022-11-29T15:11:32.544Z,100614.44
2022-11-29T15:16:46.676Z,100609.28
2022-11-29T15:22:17.374Z,100610.66
2022-11-29T15:27:20.164Z,100595.94
2022-11-29T15:32:32.973Z,100588.09
2022-11-29T15:37:36.066Z,100605.47
2022-11-29T15:42:44.125Z,100614.63
2022-11-29T15:47:46.333Z,100618.97
2022-11-29T15:52:48.777Z,100612.06
2022-11-29T15:57:56.543Z,100605.63
2022-11-29T16:03:01.838Z,100616.28
2022-11-29T16:08:14.758Z,100602.25
2022-11-29T16:13:58.525Z,100642.84
2022-11-29T16:19:33.023Z,100618.75
2022-11-29T16:24:37.223Z,100618.56
2022-11-29T16:29:45.541Z,100602.38
2022-11-29T16:34:48.177Z,100588.38
2022-11-29T16:39:53.421Z,100610.56
2022-11-29T16:45:32.663Z,100632.47
2022-11-29T16:50:35.481Z,100623.94
2022-11-29T16:55:37.699Z,100614.94
2022-11-29T17:00:40.151Z,100587.06
2022-11-29T17:05:44.859Z,100627.88
2022-11-29T17:10:47.358Z,100607.56
2022-11-29T17:15:49.705Z,100613.59
2022-11-29T17:20:57.760Z,100632.47
2022-11-29T17:26:01.016Z,100630.28
2022-11-29T17:31:33.137Z,100649.84
2022-11-29T17:36:35.732Z,100652.16
2022-11-29T17:41:38.436Z,100640.50
2022-11-29T17:46:41.755Z,100645.66
2022-11-29T17:51:52.961Z,100645.50
2022-11-29T17:56:55.781Z,100646.03
2022-11-29T18:01:58.021Z,100647.88
2022-11-29T18:07:01.997Z,100662.63
2022-11-29T18:12:04.551Z,100634.69
2022-11-29T18:17:06.927Z,100632.19
2022-11-29T18:22:09.456Z,100591.09
2022-11-29T18:27:11.872Z,100602.09
2022-11-29T18:32:14.267Z,100618.63
2022-11-29T18:37:32.821Z,100618.84
2022-11-29T18:42:39.233Z,100599.59
2022-11-29T18:47:41.443Z,100611.50
2022-11-29T18:52:43.714Z,100583.66
2022-11-29T18:57:49.485Z,100572.44
2022-11-29T19:02:51.783Z,100602.16
2022-11-29T19:07:54.136Z,100592.84
2022-11-29T19:12:57.026Z,100593.38
2022-11-29T19:17:59.529Z,100607.19
2022-11-29T19:23:01.817Z,100584.31
2022-11-29T19:28:05.902Z,100601.53
2022-11-29T19:33:14.028Z,100577.00
2022-11-29T19:38:16.233Z,100586.34
2022-11-29T19:43:18.682Z,100574.16
2022-11-29T19:48:21.143Z,100586.84
2022-11-29T19:53:23.441Z,100592.19
2022-11-29T19:58:26.002Z,100588.88
2022-11-29T20:03:30.709Z,100587.31
2022-11-29T20:08:33.237Z,100592.50
2022-11-29T20:13:35.927Z,100562.31
2022-11-29T20:18:40.236Z,100600.53
2022-11-29T20:23:43.084Z,100593.03
2022-11-29T20:28:47.303Z,100617.41
2022-11-29T20:33:51.758Z,100608.56
2022-11-29T20:39:01.284Z,100602.56
2022-11-29T20:44:04.521Z,100591.53
2022-11-29T20:49:07.154Z,100600.03
2022-11-29T20:54:12.477Z,100595.38
2022-11-29T20:59:14.889Z,100606.03
2022-11-29T21:04:22.883Z,100584.84
2022-11-29T21:09:26.284Z,100600.38
2022-11-29T21:14:30.622Z,100606.88
2022-11-29T21:19:33.344Z,100577.50
2022-11-29T21:25:03.152Z,100577.66
2022-11-29T21:30:09.458Z,100571.81
2022-11-29T21:35:12.414Z,100586.84
2022-11-29T21:40:15.913Z,100621.09
2022-11-29T21:45:18.578Z,100608.91
2022-11-29T21:50:22.712Z,100590.34
2022-11-29T21:55:31.570Z,100585.00
2022-11-29T22:00:37.581Z,100564.50
2022-11-29T22:05:40.091Z,100570.81
2022-11-29T22:10:42.388Z,100558.13
2022-11-29T22:15:44.960Z,100584.19
2022-11-29T22:20:49.985Z,100593.19
2022-11-29T22:25:52.279Z,100578.19
2022-11-29T22:31:05.662Z,100599.41
2022-11-29T22:36:10.615Z,100543.44
2022-11-29T22:41:14.371Z,100585.19
2022-11-29T22:46:25.000Z,100579.84
2022-11-29T22:51:31.099Z,100582.84
2022-11-29T22:56:36.374Z,100569.66
2022-11-29T23:01:40.357Z,100561.66
2022-11-29T23:06:45.272Z,100527.56
2022-11-29T23:11:54.051Z,100554.44
2022-11-29T23:16:56.326Z,100535.25
2022-11-29T23:21:58.898Z,100555.47
2022-11-29T23:27:01.100Z,100522.91
2022-11-29T23:32:03.533Z,100490.34
2022-11-29T23:37:05.698Z,100497.19
2022-11-29T23:42:08.038Z,100465.81
2022-11-29T23:47:10.442Z,100507.38
2022-11-29T23:52:13.102Z,100490.03
2022-11-29T23:57:15.444Z,100484.19
